ADDS TAF Board (Experimental) INFO Settings
IDs: Format: Expanded Condensed

KPDX - Portland Intl Arpt, OR, US

Issued at 1720 UTC 26 May 2016
Updated at: 1822 UTC 26 May 2016
Time1753Z 26/19Z 26/20Z 26/21Z 26/22Z 26/23Z 27/00Z 27/01Z 27/02Z 27/03Z 27/04Z 27/05Z 27/06Z 27/07Z
Type OBS PRVL PRVL PRVL PRVL PRVL PRVL PRVL PRVL PRVL PRVL PRVL PRVL PRVL
VIS 10 >6 >6 >6 >6 >6 >6 >6 >6 >6 >6 >6 >6 >6
CIG 50 40 40 40 50 50 50 50 50 50 50 50 35 35
Cover OVC OVC OVC OVC BKN BKN BKN BKN BKN BKN BKN BKN BKN BKN
FltCat VFR VFR VFR VFR VFR VFR VFR VFR VFR VFR VFR VFR VFR VFR
WX -- -- -- -- VCSH VCSH VCSH VCSH VCSH VCSH VCSH VCSH -- --
WDir 310 290 290 290 330 330 330 330 330 330 330 330 300 300
WSpd 5 5 5 5 10 10 10 10 10 10 10 10 6 6
WGst -- -- -- -- 16 16 16 16 16 16 16 16 -- --
R03/21
XWnd 5 5 5 5 10 10 10 10 10 10 10 10 6 6
XGst -- -- -- -- 15 15 15 15 15 15 15 15 -- --
HWnd -0 -2 -2 -2 3 3 3 3 3 3 3 3 -2 -2
HGst -- -- -- -- 4 4 4 4 4 4 4 4 -- --
R10/28
XWnd 1 -1 -1 -1 5 5 5 5 5 5 5 5 0 0
XGst -- -- -- -- 8 8 8 8 8 8 8 8 -- --
HWnd -5 -5 -5 -5 -9 -9 -9 -9 -9 -9 -9 -9 -6 -6
HGst -- -- -- -- -14 -14 -14 -14 -14 -14 -14 -14 -- --

NOTE: TEMPO conditions in [brackets]. Keep in mind TEMPO conditions might be better (lower impact) than prevailing conditions.

Raw TAF
KPDX 261720Z 2618/2718 29005KT P6SM SCT025 OVC040
  FM262200 33010G16KT P6SM VCSH SCT035 BKN050
  FM270600 30006KT P6SM BKN035
  FM271000 26005KT P6SM OVC035


Raw METAR
KPDX 261753Z 31005KT 10SM OVC050 14/05 A3024 RMK AO2 SLP240 T01440050 10150 20122 55000
KPDX 261653Z 00000KT 10SM OVC055 14/06 A3024 RMK AO2 SLP239 T01390056
KPDX 261553Z 29003KT 10SM FEW025 BKN037 OVC050 13/06 A3024 RMK AO2 SLP240 T01330056

METAR Board
Radar Display
Forecast Discussion

TAF Board Legend

Potential Impact
Threat None Slight Moderate High
Visibility (sm) ≥5.1 5.1>X≥3 3>X≥1 <1
Ceiling (100 ft) ≥30.1 30.1>X≥10 10>X≥5 <5
Wind Speed (kt) <10 10≤X<20 20≤X<30 ≥30
Wind Gust (kt) <15 15≤X<25 25≤X<35 ≥35
Weather No Wx Reported VCTS,-TS,-FZRA,SN TS,FZRA +TS,+FZRA,+SN